Time;durP1;ratioP1;P1;durP2;ratioP2;P2;SDS_P1;SDS_P2;PMS_P1;PMS_P2;Temp;Humidity;BMP_temperature;BMP_pressure;BME280_temperature;BME280_humidity;BME280_pressure;Samples;Min_cycle;Max_cycle;Signal;HPM_P1;HPM_P2
2021/10/25 05:30:50;;;;;;;25.10;17.67;;;;;;;7.59;100.00;101682.81;2627881;36;20037;-70
2021/10/25 05:54:53;;;;;;;24.70;16.58;;;;;;;7.79;100.00;101667.28;2628247;36;20601;-70
2021/10/25 19:32:28;;;;;;;36.38;25.95;;;;;;;11.18;100.00;101610.09;2618801;36;20061;-70
2021/10/25 19:34:56;;;;;;;34.78;24.25;;;;;;;11.21;100.00;101612.56;2615807;36;20034;-71
2021/10/25 19:37:25;;;;;;;38.22;26.17;;;;;;;11.24;100.00;101614.16;2616227;31;20037;-71
2021/10/25 19:39:54;;;;;;;37.17;25.85;;;;;;;11.22;100.00;101612.44;2615595;36;20153;-70
2021/10/25 19:42:23;;;;;;;38.95;27.10;;;;;;;11.21;100.00;101616.09;2613949;36;20145;-69
2021/10/25 19:44:52;;;;;;;35.47;25.65;;;;;;;11.20;100.00;101614.41;2615433;36;20534;-72
2021/10/25 19:47:22;;;;;;;36.67;26.27;;;;;;;11.22;100.00;101612.44;2615363;36;20125;-70
2021/10/25 19:49:53;;;;;;;42.83;27.52;;;;;;;11.18;100.00;101619.03;2613973;36;20610;-70
2021/10/25 19:52:21;;;;;;;38.33;26.85;;;;;;;11.20;100.00;101614.41;2614291;36;20467;-71
2021/10/25 19:54:50;;;;;;;37.05;26.15;;;;;;;11.14;100.00;101622.94;2614861;36;20182;-71
2021/10/25 19:57:18;;;;;;;39.17;27.33;;;;;;;11.13;100.00;101618.56;2613057;36;20160;-74
2021/10/25 19:59:47;;;;;;;38.72;28.38;;;;;;;11.13;100.00;101623.94;2603863;36;20856;-73
2021/10/25 20:02:15;;;;;;;37.88;26.38;;;;;;;11.15;100.00;101616.59;2603641;36;20155;-70
2021/10/25 20:04:44;;;;;;;38.65;28.55;;;;;;;11.22;100.00;101623.22;2597577;36;20041;-71
2021/10/25 20:07:15;;;;;;;36.70;26.40;;;;;;;11.18;100.00;101620.88;2602477;36;20042;-70
2021/10/25 20:09:44;;;;;;;39.03;28.52;;;;;;;11.16;100.00;101623.69;2604567;36;20077;-71
2021/10/25 20:12:13;;;;;;;38.75;26.92;;;;;;;11.20;100.00;101625.19;2604235;36;20116;-70
2021/10/25 20:14:41;;;;;;;36.95;26.58;;;;;;;11.22;100.00;101623.22;2602672;36;20053;-72
2021/10/25 20:17:10;;;;;;;38.20;27.95;;;;;;;11.17;100.00;101622.72;2606699;36;20030;-72
2021/10/25 20:19:39;;;;;;;37.17;26.50;;;;;;;11.16;100.00;101633.59;2606222;36;20038;-73
2021/10/25 20:22:07;;;;;;;42.15;29.13;;;;;;;11.19;100.00;101630.69;2607021;31;20497;-72
2021/10/25 20:24:39;;;;;;;37.38;27.25;;;;;;;11.26;100.00;101628.34;2609425;31;20034;-71
2021/10/25 20:27:07;;;;;;;44.08;31.27;;;;;;;11.28;100.00;101634.47;2601826;31;20034;-70
2021/10/25 20:29:36;;;;;;;38.57;28.10;;;;;;;11.22;100.00;101633.97;2601206;36;20038;-74
2021/10/25 20:32:12;;;;;;;40.97;27.65;;;;;;;11.26;100.00;101639.13;2600048;36;20667;-72
2021/10/25 20:37:43;;;;;;;43.35;31.95;;;;;;;11.27;100.00;101640.84;2600093;36;20041;-70
2021/10/25 20:40:23;;;;;;;40.45;28.58;;;;;;;11.29;100.00;101628.97;2598276;36;20121;-71
2021/10/25 20:43:21;;;;;;;45.42;28.08;;;;;;;11.28;100.00;101631.75;2599774;36;20098;-71
2021/10/25 20:45:50;;;;;;;38.70;28.13;;;;;;;11.31;100.00;101631.56;2603754;36;20639;-72
2021/10/25 20:48:18;;;;;;;36.80;26.30;;;;;;;11.30;100.00;101636.06;2597922;31;20030;-72
2021/10/25 20:50:47;;;;;;;38.75;27.20;;;;;;;11.33;100.00;101640.34;2600302;36;20037;-70
2021/10/25 20:53:16;;;;;;;41.70;30.48;;;;;;;11.31;100.00;101645.03;2597769;36;20058;-71
2021/10/25 20:55:47;;;;;;;38.42;28.25;;;;;;;11.29;100.00;101638.88;2601507;36;20186;-71
2021/10/25 20:58:15;;;;;;;39.22;28.17;;;;;;;11.30;100.00;101627.97;2611250;36;20041;-72
2021/10/25 21:00:44;;;;;;;42.33;29.65;;;;;;;11.31;100.00;101632.41;2613193;36;20064;-73
2021/10/25 21:03:13;;;;;;;45.85;29.23;;;;;;;11.29;100.00;101638.88;2612631;36;20947;-70
2021/10/25 21:05:42;;;;;;;;;;;;;;;11.31;100.00;101631.56;2611924;36;20031;-71
2021/10/25 21:08:11;;;;;;;43.35;29.67;;;;;;;11.26;100.00;101628.34;2612340;36;20073;-71
2021/10/25 21:11:09;;;;;;;42.72;29.75;;;;;;;11.27;100.00;101646.25;2611894;36;20588;-71
2021/10/25 21:13:37;;;;;;;49.33;31.85;;;;;;;11.25;100.00;101645.47;2611695;31;20126;-72
2021/10/25 21:16:06;;;;;;;43.30;29.83;;;;;;;11.27;100.00;101646.25;2612074;36;20130;-70
2021/10/25 21:18:41;;;;;;;43.10;28.98;;;;;;;11.25;100.00;101638.28;2611512;36;20133;-72
2021/10/25 21:21:09;;;;;;;47.28;31.83;;;;;;;11.30;100.00;101646.84;2610704;36;20054;-73
2021/10/25 21:23:38;;;;;;;46.95;31.02;;;;;;;11.31;100.00;101642.34;2610998;36;20118;-70
2021/10/25 21:26:11;;;;;;;49.83;31.27;;;;;;;11.29;100.00;101639.75;2610228;36;20061;-71
2021/10/25 21:28:39;;;;;;;46.08;31.30;;;;;;;11.25;100.00;101646.38;2612102;36;20089;-72
2021/10/25 21:31:11;;;;;;;46.22;31.58;;;;;;;11.29;100.00;101644.28;2612383;36;20178;-72
2021/10/25 21:33:39;;;;;;;47.83;29.90;;;;;;;11.27;100.00;101644.41;2611790;36;20126;-72
2021/10/25 21:36:07;;;;;;;50.70;31.35;;;;;;;11.27;100.00;101643.53;2612248;31;20161;-71
2021/10/25 21:38:35;;;;;;;47.95;30.00;;;;;;;11.28;100.00;101647.94;2612887;36;20166;-71
2021/10/25 21:41:04;;;;;;;43.33;30.05;;;;;;;11.29;100.00;101649.66;2612384;36;20058;-73
2021/10/25 21:43:35;;;;;;;43.60;31.17;;;;;;;11.25;100.00;101642.78;2612677;36;20030;-72
2021/10/25 21:46:04;;;;;;;45.00;30.05;;;;;;;11.24;100.00;101638.41;2612603;36;20064;-71
2021/10/25 21:48:32;;;;;;;48.80;30.20;;;;;;;11.25;100.00;101649.06;2612497;36;20181;-71
2021/10/25 21:51:01;;;;;;;42.03;29.27;;;;;;;11.25;100.00;101645.47;2612739;36;20638;-70
2021/10/25 21:53:29;;;;;;;43.45;29.40;;;;;;;11.25;100.00;101637.41;2612629;36;20086;-70
2021/10/25 21:55:57;;;;;;;43.65;29.75;;;;;;;11.26;100.00;101642.66;2612668;36;20035;-71
2021/10/25 21:58:26;;;;;;;43.85;30.88;;;;;;;11.30;100.00;101646.84;2612551;36;20145;-71
2021/10/25 22:00:57;;;;;;;42.83;30.07;;;;;;;11.27;100.00;101640.84;2612419;36;20141;-71
2021/10/25 22:03:25;;;;;;;48.38;31.05;;;;;;;11.19;100.00;101639.63;2612124;36;20127;-73
2021/10/25 22:05:53;;;;;;;46.17;30.95;;;;;;;11.20;100.00;101635.94;2612342;36;20031;-72
2021/10/25 22:08:22;;;;;;;48.47;32.50;;;;;;;11.21;100.00;101647.56;2611750;36;20147;-71
2021/10/25 22:10:50;;;;;;;44.05;29.75;;;;;;;11.19;100.00;101645.00;2612309;31;20407;-73
2021/10/25 22:13:21;;;;;;;54.08;33.75;;;;;;;11.12;100.00;101641.06;2612513;36;20074;-70
2021/10/25 22:15:50;;;;;;;51.35;32.25;;;;;;;11.14;100.00;101640.94;2611835;36;20109;-70
2021/10/25 22:18:21;;;;;;;46.60;30.08;;;;;;;11.13;100.00;101645.50;2610992;36;20061;-72
2021/10/25 22:20:50;;;;;;;47.53;32.13;;;;;;;11.14;100.00;101647.19;2611246;36;20030;-72
2021/10/25 22:23:18;;;;;;;47.63;31.93;;;;;;;11.13;100.00;101636.53;2612136;36;20035;-71
2021/10/25 22:25:46;;;;;;;47.25;31.63;;;;;;;11.13;100.00;101640.09;2612486;31;20291;-71
2021/10/25 22:28:17;;;;;;;49.38;32.15;;;;;;;11.17;100.00;101636.19;2611667;31;20130;-74
2021/10/25 22:30:45;;;;;;;48.13;30.85;;;;;;;11.13;100.00;101637.41;2612487;36;20053;-71
2021/10/25 22:33:15;;;;;;;45.88;31.00;;;;;;;11.13;100.00;101639.22;2611666;36;20121;-72
2021/10/25 22:35:46;;;;;;;43.72;29.40;;;;;;;11.10;100.00;101642.16;2611534;36;20030;-72
2021/10/25 22:38:14;;;;;;;48.10;32.20;;;;;;;11.10;100.00;101640.34;2609662;36;20740;-72
2021/10/25 22:40:42;;;;;;;49.57;32.43;;;;;;;11.12;100.00;101643.78;2609544;36;20145;-71
2021/10/25 22:43:11;;;;;;;49.35;32.47;;;;;;;11.11;100.00;101641.19;2610564;36;20435;-72
2021/10/25 22:45:39;;;;;;;49.08;30.90;;;;;;;11.09;100.00;101652.09;2610640;36;20134;-72
2021/10/25 22:48:08;;;;;;;52.03;32.38;;;;;;;11.08;100.00;101647.69;2610374;36;20263;-70
2021/10/25 22:50:37;;;;;;;52.78;32.70;;;;;;;11.09;100.00;101649.41;2610678;36;20539;-72
2021/10/25 22:53:07;;;;;;;49.25;31.23;;;;;;;11.11;100.00;101642.03;2610860;36;20554;-72
2021/10/25 22:55:36;;;;;;;52.95;31.45;;;;;;;11.16;100.00;101645.25;2611104;36;20063;-71
2021/10/25 22:58:04;;;;;;;49.50;30.83;;;;;;;11.17;100.00;101656.88;2610801;36;20053;-72
2021/10/25 23:00:33;;;;;;;47.85;31.27;;;;;;;11.17;100.00;101646.97;2611105;36;20030;-71
2021/10/25 23:03:01;;;;;;;46.45;31.15;;;;;;;11.13;100.00;101650.88;2611175;31;20057;-71
2021/10/25 23:05:30;;;;;;;46.63;29.08;;;;;;;11.18;100.00;101647.81;2611380;31;20053;-72
2021/10/25 23:07:58;;;;;;;52.00;30.90;;;;;;;11.21;100.00;101652.97;2611909;36;20054;-72
2021/10/25 23:10:29;;;;;;;45.00;29.75;;;;;;;11.16;100.00;101644.38;2611667;36;20397;-71
2021/10/25 23:12:57;;;;;;;48.65;29.98;;;;;;;11.12;100.00;101642.91;2611778;36;20167;-73
2021/10/25 23:15:26;;;;;;;48.38;31.02;;;;;;;11.12;100.00;101648.31;2612035;31;20088;-71
2021/10/25 23:17:55;;;;;;;55.40;31.67;;;;;;;11.11;100.00;101644.75;2612150;36;20122;-72
2021/10/25 23:20:24;;;;;;;44.33;29.83;;;;;;;11.14;100.00;101631.03;2611380;36;20538;-71
2021/10/25 23:22:52;;;;;;;49.00;32.13;;;;;;;11.10;100.00;101640.34;2611703;36;20067;-71
2021/10/25 23:25:21;;;;;;;50.80;31.73;;;;;;;11.07;100.00;101635.22;2611111;36;20530;-70
2021/10/25 23:27:51;;;;;;;48.38;31.33;;;;;;;11.05;100.00;101637.13;2611684;36;20034;-71
2021/10/25 23:30:20;;;;;;;48.58;32.33;;;;;;;11.01;100.00;101649.13;2611104;36;20158;-72
2021/10/25 23:32:48;;;;;;;46.85;31.17;;;;;;;10.99;100.00;101641.16;2611348;36;20053;-71
2021/10/25 23:35:16;;;;;;;51.30;30.20;;;;;;;10.99;100.00;101648.41;2611345;36;20038;-71
2021/10/25 23:37:44;;;;;;;48.03;30.77;;;;;;;10.92;100.00;101639.94;2612004;36;20588;-71
2021/10/25 23:40:14;;;;;;;48.65;31.77;;;;;;;10.96;100.00;101643.25;2611456;36;20212;-70
2021/10/25 23:42:42;;;;;;;49.20;31.05;;;;;;;10.94;100.00;101640.69;2612031;36;20571;-69
2021/10/25 23:45:13;;;;;;;50.05;32.10;;;;;;;10.97;100.00;101644.97;2611650;36;20161;-71
2021/10/25 23:47:41;;;;;;;52.85;32.13;;;;;;;11.00;100.00;101650.13;2611034;36;20146;-72
2021/10/25 23:50:10;;;;;;;50.33;32.17;;;;;;;11.04;100.00;101648.88;2610554;36;20194;-71
2021/10/25 23:52:39;;;;;;;44.40;30.33;;;;;;;11.08;100.00;101642.28;2611310;36;20053;-72
2021/10/25 23:55:08;;;;;;;52.00;29.63;;;;;;;11.02;100.00;101634.69;2611741;36;20126;-71
2021/10/25 23:57:37;;;;;;;47.30;28.70;;;;;;;10.98;100.00;101638.59;2611932;36;20030;-72
